KCLL/CLL METAR and TAF weather

Enter ICAO airport designator
Station Type Date Time Source
KCLL METAR 2019/04/25 21:53 UTC NOAA

KCLL 252153Z 30012KT 10SM FEW055 28/16 A2986 RMK AO2 SLP108 T02780161


Station Type Date Time Source
KCLL Decoded METAR 2019/04/25 21:53 UTC NOAA

COLLEGE STN EASTERWOOD FIELD, TX, United States (KCLL) 30-35N 096-22W 96M
Apr 25, 2019 - 05:53 PM EDT / 2019.04.25 2153 UTC
Wind: from the WNW (300 degrees) at 14 MPH (12 KT):0
Visibility: 10 mile(s):0
Sky conditions: mostly clear
Temperature: 82.0 F (27.8 C)
Dew Point: 61.0 F (16.1 C)
Relative Humidity: 48%
Pressure (altimeter): 29.86 in. Hg (1011 hPa)
ob: KCLL 252153Z 30012KT 10SM FEW055 28/16 A2986 RMK AO2 SLP108 T02780161
cycle: 22

Station Type Date Time Source
KCLL TAF 2019/04/25 18:24 UTC NOAA

TAF KCLL 251720Z 2518/2618 32009KT P6SM SKC

Example: see airport list